sensor_id;sensor_type;location;lat;lon;timestamp;temperature;humidity
9271;DHT22;4673;53.458;9.940;2022-09-16T00:02:22;10.40;99.90
9271;DHT22;4673;53.458;9.940;2022-09-16T00:04:48;10.40;99.90
9271;DHT22;4673;53.458;9.940;2022-09-16T00:07:16;10.40;99.90
9271;DHT22;4673;53.458;9.940;2022-09-16T00:09:42;10.30;99.90
9271;DHT22;4673;53.458;9.940;2022-09-16T00:12:07;10.30;99.90
9271;DHT22;4673;53.458;9.940;2022-09-16T00:14:33;10.20;99.90
9271;DHT22;4673;53.458;9.940;2022-09-16T00:16:58;10.20;99.90
9271;DHT22;4673;53.458;9.940;2022-09-16T00:19:24;10.10;99.90
9271;DHT22;4673;53.458;9.940;2022-09-16T00:21:50;10.00;99.90
9271;DHT22;4673;53.458;9.940;2022-09-16T00:24:15;10.00;99.90
9271;DHT22;4673;53.458;9.940;2022-09-16T00:26:42;10.00;99.90
9271;DHT22;4673;53.458;9.940;2022-09-16T00:29:08;9.90;99.90
9271;DHT22;4673;53.458;9.940;2022-09-16T00:31:34;9.80;99.90
9271;DHT22;4673;53.458;9.940;2022-09-16T00:34:00;9.90;99.90
9271;DHT22;4673;53.458;9.940;2022-09-16T00:36:26;10.00;99.90
9271;DHT22;4673;53.458;9.940;2022-09-16T00:38:52;10.00;99.90
9271;DHT22;4673;53.458;9.940;2022-09-16T00:41:25;10.00;99.90
9271;DHT22;4673;53.458;9.940;2022-09-16T00:46:39;10.00;99.90
9271;DHT22;4673;53.458;9.940;2022-09-16T00:49:14;10.10;99.90
9271;DHT22;4673;53.458;9.940;2022-09-16T00:51:42;10.10;99.90
9271;DHT22;4673;53.458;9.940;2022-09-16T00:54:09;10.20;99.90
9271;DHT22;4673;53.458;9.940;2022-09-16T00:56:38;10.30;99.90
9271;DHT22;4673;53.458;9.940;2022-09-16T00:59:10;10.30;99.90
9271;DHT22;4673;53.458;9.940;2022-09-16T01:01:39;10.30;99.90
9271;DHT22;4673;53.458;9.940;2022-09-16T01:04:12;10.30;99.90
9271;DHT22;4673;53.458;9.940;2022-09-16T01:06:39;10.30;99.90
9271;DHT22;4673;53.458;9.940;2022-09-16T01:09:05;10.20;99.90
9271;DHT22;4673;53.458;9.940;2022-09-16T01:11:31;10.20;99.90
9271;DHT22;4673;53.458;9.940;2022-09-16T01:13:57;10.10;99.90
9271;DHT22;4673;53.458;9.940;2022-09-16T01:16:49;10.00;99.90
9271;DHT22;4673;53.458;9.940;2022-09-16T01:25:05;9.90;99.90
9271;DHT22;4673;53.458;9.940;2022-09-16T01:30:31;10.00;99.90
9271;DHT22;4673;53.458;9.940;2022-09-16T01:46:23;9.90;99.90
9271;DHT22;4673;53.458;9.940;2022-09-16T01:49:00;9.80;99.90
9271;DHT22;4673;53.458;9.940;2022-09-16T01:51:43;9.90;99.90
9271;DHT22;4673;53.458;9.940;2022-09-16T01:57:02;10.00;99.90
9271;DHT22;4673;53.458;9.940;2022-09-16T01:59:43;10.00;99.90
9271;DHT22;4673;53.458;9.940;2022-09-16T02:02:18;10.10;99.90
9271;DHT22;4673;53.458;9.940;2022-09-16T02:04:54;10.00;99.90
9271;DHT22;4673;53.458;9.940;2022-09-16T02:07:24;10.20;99.90
9271;DHT22;4673;53.458;9.940;2022-09-16T02:09:55;10.10;99.90
9271;DHT22;4673;53.458;9.940;2022-09-16T02:12:25;10.00;99.90
9271;DHT22;4673;53.458;9.940;2022-09-16T02:14:57;9.90;99.90
9271;DHT22;4673;53.458;9.940;2022-09-16T02:17:26;9.80;99.90
9271;DHT22;4673;53.458;9.940;2022-09-16T02:20:04;9.80;99.90
9271;DHT22;4673;53.458;9.940;2022-09-16T02:22:35;9.80;99.90
9271;DHT22;4673;53.458;9.940;2022-09-16T02:25:03;9.80;99.90
9271;DHT22;4673;53.458;9.940;2022-09-16T02:27:30;9.80;99.90
9271;DHT22;4673;53.458;9.940;2022-09-16T02:30:04;9.80;99.90
9271;DHT22;4673;53.458;9.940;2022-09-16T02:32:33;9.90;99.90
9271;DHT22;4673;53.458;9.940;2022-09-16T02:35:00;9.90;99.90
9271;DHT22;4673;53.458;9.940;2022-09-16T02:37:28;9.90;99.90
9271;DHT22;4673;53.458;9.940;2022-09-16T02:39:58;10.00;99.90
9271;DHT22;4673;53.458;9.940;2022-09-16T02:42:27;10.00;99.90
9271;DHT22;4673;53.458;9.940;2022-09-16T02:44:54;10.20;99.90
9271;DHT22;4673;53.458;9.940;2022-09-16T02:50:27;10.10;99.90
9271;DHT22;4673;53.458;9.940;2022-09-16T02:58:46;9.90;99.90
9271;DHT22;4673;53.458;9.940;2022-09-16T03:01:12;9.80;99.90
9271;DHT22;4673;53.458;9.940;2022-09-16T03:03:39;9.80;99.90
9271;DHT22;4673;53.458;9.940;2022-09-16T03:08:31;9.70;99.90
9271;DHT22;4673;53.458;9.940;2022-09-16T03:11:23;9.60;99.90
9271;DHT22;4673;53.458;9.940;2022-09-16T03:16:25;9.60;99.90
9271;DHT22;4673;53.458;9.940;2022-09-16T03:19:27;9.50;99.90
9271;DHT22;4673;53.458;9.940;2022-09-16T03:27:31;9.40;99.90
9271;DHT22;4673;53.458;9.940;2022-09-16T03:30:07;9.40;99.90
9271;DHT22;4673;53.458;9.940;2022-09-16T03:32:41;9.40;99.90
9271;DHT22;4673;53.458;9.940;2022-09-16T03:35:11;9.40;99.90
9271;DHT22;4673;53.458;9.940;2022-09-16T03:37:39;9.40;99.90
9271;DHT22;4673;53.458;9.940;2022-09-16T03:40:10;9.30;99.90
9271;DHT22;4673;53.458;9.940;2022-09-16T03:42:38;9.30;99.90
9271;DHT22;4673;53.458;9.940;2022-09-16T03:45:05;9.30;99.90
9271;DHT22;4673;53.458;9.940;2022-09-16T03:47:32;9.30;99.90
9271;DHT22;4673;53.458;9.940;2022-09-16T03:49:57;9.30;99.90
9271;DHT22;4673;53.458;9.940;2022-09-16T03:52:23;9.30;99.90
9271;DHT22;4673;53.458;9.940;2022-09-16T03:54:49;9.30;99.90
9271;DHT22;4673;53.458;9.940;2022-09-16T03:57:14;9.40;99.90
9271;DHT22;4673;53.458;9.940;2022-09-16T03:59:40;9.40;99.90
9271;DHT22;4673;53.458;9.940;2022-09-16T04:02:06;9.40;99.90
9271;DHT22;4673;53.458;9.940;2022-09-16T04:04:31;9.50;99.90
9271;DHT22;4673;53.458;9.940;2022-09-16T04:06:57;9.60;99.90
9271;DHT22;4673;53.458;9.940;2022-09-16T04:09:23;9.70;99.90
9271;DHT22;4673;53.458;9.940;2022-09-16T04:11:48;9.70;99.90
9271;DHT22;4673;53.458;9.940;2022-09-16T04:14:14;9.70;99.90
9271;DHT22;4673;53.458;9.940;2022-09-16T04:16:40;9.70;99.90
9271;DHT22;4673;53.458;9.940;2022-09-16T04:19:06;9.70;99.90
9271;DHT22;4673;53.458;9.940;2022-09-16T04:21:32;9.70;99.90
9271;DHT22;4673;53.458;9.940;2022-09-16T04:23:57;9.60;99.90
9271;DHT22;4673;53.458;9.940;2022-09-16T04:26:23;9.60;99.90
9271;DHT22;4673;53.458;9.940;2022-09-16T04:28:51;9.50;99.90
9271;DHT22;4673;53.458;9.940;2022-09-16T04:31:19;9.50;99.90
9271;DHT22;4673;53.458;9.940;2022-09-16T04:33:44;9.40;99.90
9271;DHT22;4673;53.458;9.940;2022-09-16T04:36:15;9.40;99.90
9271;DHT22;4673;53.458;9.940;2022-09-16T04:38:42;9.40;99.90
9271;DHT22;4673;53.458;9.940;2022-09-16T04:41:14;9.30;99.90
9271;DHT22;4673;53.458;9.940;2022-09-16T04:43:40;9.20;99.90
9271;DHT22;4673;53.458;9.940;2022-09-16T04:46:06;9.30;99.90
9271;DHT22;4673;53.458;9.940;2022-09-16T04:48:33;9.30;99.90
9271;DHT22;4673;53.458;9.940;2022-09-16T04:51:07;9.30;99.90
9271;DHT22;4673;53.458;9.940;2022-09-16T04:53:34;9.20;99.90
9271;DHT22;4673;53.458;9.940;2022-09-16T04:58:29;9.20;99.90
9271;DHT22;4673;53.458;9.940;2022-09-16T05:00:55;9.10;99.90
9271;DHT22;4673;53.458;9.940;2022-09-16T05:03:20;9.10;99.90
9271;DHT22;4673;53.458;9.940;2022-09-16T05:05:46;9.10;99.90
9271;DHT22;4673;53.458;9.940;2022-09-16T05:08:11;9.10;99.90
9271;DHT22;4673;53.458;9.940;2022-09-16T05:10:37;9.20;99.90
9271;DHT22;4673;53.458;9.940;2022-09-16T05:13:03;9.20;99.90
9271;DHT22;4673;53.458;9.940;2022-09-16T05:15:28;9.20;99.90
9271;DHT22;4673;53.458;9.940;2022-09-16T05:17:54;9.30;99.90
9271;DHT22;4673;53.458;9.940;2022-09-16T05:20:19;9.30;99.90
9271;DHT22;4673;53.458;9.940;2022-09-16T05:22:48;9.40;99.90
9271;DHT22;4673;53.458;9.940;2022-09-16T05:25:14;9.60;99.90
9271;DHT22;4673;53.458;9.940;2022-09-16T05:27:41;9.60;99.90
9271;DHT22;4673;53.458;9.940;2022-09-16T05:30:07;9.80;99.90
9271;DHT22;4673;53.458;9.940;2022-09-16T05:32:32;9.90;99.90
9271;DHT22;4673;53.458;9.940;2022-09-16T05:34:58;10.00;99.90
9271;DHT22;4673;53.458;9.940;2022-09-16T05:37:24;10.00;99.90
9271;DHT22;4673;53.458;9.940;2022-09-16T05:39:49;10.00;99.90
9271;DHT22;4673;53.458;9.940;2022-09-16T05:42:15;10.00;99.90
9271;DHT22;4673;53.458;9.940;2022-09-16T05:44:40;10.00;99.90
9271;DHT22;4673;53.458;9.940;2022-09-16T05:47:06;9.80;99.90
9271;DHT22;4673;53.458;9.940;2022-09-16T05:49:31;9.90;99.90
9271;DHT22;4673;53.458;9.940;2022-09-16T05:51:57;9.80;99.90
9271;DHT22;4673;53.458;9.940;2022-09-16T05:54:23;9.80;99.90
9271;DHT22;4673;53.458;9.940;2022-09-16T05:56:49;9.70;99.90
9271;DHT22;4673;53.458;9.940;2022-09-16T05:59:16;9.70;99.90
9271;DHT22;4673;53.458;9.940;2022-09-16T06:01:42;9.80;99.90
9271;DHT22;4673;53.458;9.940;2022-09-16T06:04:11;9.80;99.90
9271;DHT22;4673;53.458;9.940;2022-09-16T06:06:39;9.80;99.90
9271;DHT22;4673;53.458;9.940;2022-09-16T06:09:13;9.80;99.90
9271;DHT22;4673;53.458;9.940;2022-09-16T06:11:44;9.90;99.90
9271;DHT22;4673;53.458;9.940;2022-09-16T06:14:10;9.90;99.90
9271;DHT22;4673;53.458;9.940;2022-09-16T06:16:36;10.00;99.90
9271;DHT22;4673;53.458;9.940;2022-09-16T06:19:04;10.00;99.90
9271;DHT22;4673;53.458;9.940;2022-09-16T06:21:30;10.10;99.90
9271;DHT22;4673;53.458;9.940;2022-09-16T06:23:56;10.20;99.90
9271;DHT22;4673;53.458;9.940;2022-09-16T06:26:24;10.30;99.90
9271;DHT22;4673;53.458;9.940;2022-09-16T06:28:50;10.40;99.90
9271;DHT22;4673;53.458;9.940;2022-09-16T06:31:22;10.60;99.90
9271;DHT22;4673;53.458;9.940;2022-09-16T06:33:48;10.70;99.90
9271;DHT22;4673;53.458;9.940;2022-09-16T06:36:30;10.80;99.90
9271;DHT22;4673;53.458;9.940;2022-09-16T06:38:56;10.70;99.90
9271;DHT22;4673;53.458;9.940;2022-09-16T06:41:22;10.70;99.90
9271;DHT22;4673;53.458;9.940;2022-09-16T06:43:48;10.60;99.90
9271;DHT22;4673;53.458;9.940;2022-09-16T06:46:20;10.50;99.90
9271;DHT22;4673;53.458;9.940;2022-09-16T06:48:48;10.50;99.90
9271;DHT22;4673;53.458;9.940;2022-09-16T06:51:22;10.50;99.90
9271;DHT22;4673;53.458;9.940;2022-09-16T06:53:50;10.50;99.90
9271;DHT22;4673;53.458;9.940;2022-09-16T06:56:18;10.40;99.90
9271;DHT22;4673;53.458;9.940;2022-09-16T06:58:45;10.50;99.90
9271;DHT22;4673;53.458;9.940;2022-09-16T07:01:25;10.50;99.90
9271;DHT22;4673;53.458;9.940;2022-09-16T07:03:52;10.50;99.90
9271;DHT22;4673;53.458;9.940;2022-09-16T07:06:19;10.50;99.90
9271;DHT22;4673;53.458;9.940;2022-09-16T07:08:46;10.60;99.90
9271;DHT22;4673;53.458;9.940;2022-09-16T07:13:37;10.60;99.90
9271;DHT22;4673;53.458;9.940;2022-09-16T07:16:06;10.60;99.90
9271;DHT22;4673;53.458;9.940;2022-09-16T07:18:32;10.70;99.90
9271;DHT22;4673;53.458;9.940;2022-09-16T07:21:26;10.70;99.90
9271;DHT22;4673;53.458;9.940;2022-09-16T07:23:57;10.80;99.90
9271;DHT22;4673;53.458;9.940;2022-09-16T07:26:26;10.80;99.90
9271;DHT22;4673;53.458;9.940;2022-09-16T07:28:52;10.90;99.90
9271;DHT22;4673;53.458;9.940;2022-09-16T07:31:26;10.90;99.90
9271;DHT22;4673;53.458;9.940;2022-09-16T07:33:54;11.00;99.90
9271;DHT22;4673;53.458;9.940;2022-09-16T07:36:23;11.00;99.90
9271;DHT22;4673;53.458;9.940;2022-09-16T07:38:50;11.10;99.90
9271;DHT22;4673;53.458;9.940;2022-09-16T07:41:23;11.20;99.90
9271;DHT22;4673;53.458;9.940;2022-09-16T07:43:49;11.30;99.90
9271;DHT22;4673;53.458;9.940;2022-09-16T07:46:17;11.40;99.90
9271;DHT22;4673;53.458;9.940;2022-09-16T07:48:44;11.40;99.90
9271;DHT22;4673;53.458;9.940;2022-09-16T07:51:13;11.40;99.30
9271;DHT22;4673;53.458;9.940;2022-09-16T07:53:39;11.50;99.00
9271;DHT22;4673;53.458;9.940;2022-09-16T07:56:09;11.50;98.70
9271;DHT22;4673;53.458;9.940;2022-09-16T07:58:35;11.60;98.50
9271;DHT22;4673;53.458;9.940;2022-09-16T08:01:03;11.70;97.90
9271;DHT22;4673;53.458;9.940;2022-09-16T08:03:30;11.80;97.50
9271;DHT22;4673;53.458;9.940;2022-09-16T08:06:00;12.00;96.80
9271;DHT22;4673;53.458;9.940;2022-09-16T08:08:28;12.30;96.30
9271;DHT22;4673;53.458;9.940;2022-09-16T08:10:54;12.50;96.20
9271;DHT22;4673;53.458;9.940;2022-09-16T08:13:20;12.80;95.30
9271;DHT22;4673;53.458;9.940;2022-09-16T08:15:46;13.00;94.00
9271;DHT22;4673;53.458;9.940;2022-09-16T08:18:11;13.00;92.40
9271;DHT22;4673;53.458;9.940;2022-09-16T08:20:37;13.00;91.40
9271;DHT22;4673;53.458;9.940;2022-09-16T08:23:03;13.00;91.00
9271;DHT22;4673;53.458;9.940;2022-09-16T08:25:28;12.70;90.30
9271;DHT22;4673;53.458;9.940;2022-09-16T08:27:54;12.60;90.50
9271;DHT22;4673;53.458;9.940;2022-09-16T08:30:20;12.50;90.60
9271;DHT22;4673;53.458;9.940;2022-09-16T08:32:45;12.40;91.20
9271;DHT22;4673;53.458;9.940;2022-09-16T08:35:11;12.30;91.20
9271;DHT22;4673;53.458;9.940;2022-09-16T08:37:39;12.30;91.00
9271;DHT22;4673;53.458;9.940;2022-09-16T08:40:05;12.30;91.30
9271;DHT22;4673;53.458;9.940;2022-09-16T08:42:51;12.40;91.10
9271;DHT22;4673;53.458;9.940;2022-09-16T08:45:43;12.50;91.00
9271;DHT22;4673;53.458;9.940;2022-09-16T08:48:16;12.50;90.70
9271;DHT22;4673;53.458;9.940;2022-09-16T08:50:47;12.60;90.50
9271;DHT22;4673;53.458;9.940;2022-09-16T08:53:41;12.70;90.10
9271;DHT22;4673;53.458;9.940;2022-09-16T08:56:09;12.90;89.90
9271;DHT22;4673;53.458;9.940;2022-09-16T08:58:40;13.00;89.30
9271;DHT22;4673;53.458;9.940;2022-09-16T09:01:29;13.10;88.00
9271;DHT22;4673;53.458;9.940;2022-09-16T09:03:56;13.10;86.50
9271;DHT22;4673;53.458;9.940;2022-09-16T09:10:04;13.20;84.70
9271;DHT22;4673;53.458;9.940;2022-09-16T09:12:12;13.40;85.10
9271;DHT22;4673;53.458;9.940;2022-09-16T09:23:16;14.50;78.90
9271;DHT22;4673;53.458;9.940;2022-09-16T09:25:58;14.80;77.40
9271;DHT22;4673;53.458;9.940;2022-09-16T09:31:14;15.00;74.50
9271;DHT22;4673;53.458;9.940;2022-09-16T09:42:04;14.90;73.40
9271;DHT22;4673;53.458;9.940;2022-09-16T09:45:00;14.60;72.60
9271;DHT22;4673;53.458;9.940;2022-09-16T09:47:54;14.40;72.50
9271;DHT22;4673;53.458;9.940;2022-09-16T09:50:32;14.30;71.40
9271;DHT22;4673;53.458;9.940;2022-09-16T09:53:50;14.30;73.00
9271;DHT22;4673;53.458;9.940;2022-09-16T09:56:27;14.50;73.20
9271;DHT22;4673;53.458;9.940;2022-09-16T10:01:24;14.60;72.80
9271;DHT22;4673;53.458;9.940;2022-09-16T10:03:51;14.50;72.00
9271;DHT22;4673;53.458;9.940;2022-09-16T10:06:27;14.40;71.70
9271;DHT22;4673;53.458;9.940;2022-09-16T10:08:56;14.30;71.10
9271;DHT22;4673;53.458;9.940;2022-09-16T10:11:31;14.40;73.00
9271;DHT22;4673;53.458;9.940;2022-09-16T10:14:00;14.40;72.10
9271;DHT22;4673;53.458;9.940;2022-09-16T10:16:35;14.40;71.60
9271;DHT22;4673;53.458;9.940;2022-09-16T10:21:46;14.70;72.00
9271;DHT22;4673;53.458;9.940;2022-09-16T10:32:39;14.30;70.60
9271;DHT22;4673;53.458;9.940;2022-09-16T10:35:13;14.30;69.80
9271;DHT22;4673;53.458;9.940;2022-09-16T10:37:40;14.20;69.80
9271;DHT22;4673;53.458;9.940;2022-09-16T10:40:15;14.00;69.30
9271;DHT22;4673;53.458;9.940;2022-09-16T10:42:46;13.80;69.60
9271;DHT22;4673;53.458;9.940;2022-09-16T10:45:24;13.80;70.20
9271;DHT22;4673;53.458;9.940;2022-09-16T10:47:54;13.90;71.90
9271;DHT22;4673;53.458;9.940;2022-09-16T10:50:20;14.10;72.00
9271;DHT22;4673;53.458;9.940;2022-09-16T10:52:47;14.40;71.00
9271;DHT22;4673;53.458;9.940;2022-09-16T10:55:23;14.50;69.10
9271;DHT22;4673;53.458;9.940;2022-09-16T10:57:50;14.70;68.50
9271;DHT22;4673;53.458;9.940;2022-09-16T11:00:24;14.80;66.40
9271;DHT22;4673;53.458;9.940;2022-09-16T11:08:56;15.30;65.50
9271;DHT22;4673;53.458;9.940;2022-09-16T11:11:47;15.60;64.60
9271;DHT22;4673;53.458;9.940;2022-09-16T11:15:16;15.70;63.90
9271;DHT22;4673;53.458;9.940;2022-09-16T11:23:26;16.40;62.70
9271;DHT22;4673;53.458;9.940;2022-09-16T11:25:54;16.60;60.20
9271;DHT22;4673;53.458;9.940;2022-09-16T11:56:43;15.10;67.60
9271;DHT22;4673;53.458;9.940;2022-09-16T12:01:56;14.60;72.40
9271;DHT22;4673;53.458;9.940;2022-09-16T12:04:33;14.60;73.30
9271;DHT22;4673;53.458;9.940;2022-09-16T12:07:10;14.50;73.10
9271;DHT22;4673;53.458;9.940;2022-09-16T12:10:07;14.60;73.30
9271;DHT22;4673;53.458;9.940;2022-09-16T12:12:43;14.50;71.70
9271;DHT22;4673;53.458;9.940;2022-09-16T12:15:17;14.60;71.60
9271;DHT22;4673;53.458;9.940;2022-09-16T12:18:07;14.60;72.00
9271;DHT22;4673;53.458;9.940;2022-09-16T12:21:04;14.70;71.90
9271;DHT22;4673;53.458;9.940;2022-09-16T12:23:35;14.80;70.60
9271;DHT22;4673;53.458;9.940;2022-09-16T12:26:10;14.80;70.60
9271;DHT22;4673;53.458;9.940;2022-09-16T12:28:43;14.90;69.70
9271;DHT22;4673;53.458;9.940;2022-09-16T12:31:31;15.10;69.60
9271;DHT22;4673;53.458;9.940;2022-09-16T12:34:03;15.30;69.00
9271;DHT22;4673;53.458;9.940;2022-09-16T12:36:33;15.60;68.70
9271;DHT22;4673;53.458;9.940;2022-09-16T12:39:00;15.80;68.10
9271;DHT22;4673;53.458;9.940;2022-09-16T12:55:29;16.40;62.70
9271;DHT22;4673;53.458;9.940;2022-09-16T13:01:11;16.10;63.80
9271;DHT22;4673;53.458;9.940;2022-09-16T13:03:47;15.90;66.80
9271;DHT22;4673;53.458;9.940;2022-09-16T13:08:50;15.60;69.60
9271;DHT22;4673;53.458;9.940;2022-09-16T13:11:20;15.60;69.70
9271;DHT22;4673;53.458;9.940;2022-09-16T13:13:53;15.70;70.80
9271;DHT22;4673;53.458;9.940;2022-09-16T13:16:34;15.50;69.50
9271;DHT22;4673;53.458;9.940;2022-09-16T13:21:43;15.20;69.80
9271;DHT22;4673;53.458;9.940;2022-09-16T13:24:28;14.80;70.60
9271;DHT22;4673;53.458;9.940;2022-09-16T13:26:54;14.70;71.00
9271;DHT22;4673;53.458;9.940;2022-09-16T13:32:03;14.60;70.10
9271;DHT22;4673;53.458;9.940;2022-09-16T13:34:29;14.50;69.10
9271;DHT22;4673;53.458;9.940;2022-09-16T13:36:55;14.50;70.10
9271;DHT22;4673;53.458;9.940;2022-09-16T13:39:33;14.50;69.10
9271;DHT22;4673;53.458;9.940;2022-09-16T13:42:16;14.50;68.70
9271;DHT22;4673;53.458;9.940;2022-09-16T13:44:42;14.50;69.30
9271;DHT22;4673;53.458;9.940;2022-09-16T13:49:49;14.30;71.60
9271;DHT22;4673;53.458;9.940;2022-09-16T13:52:36;14.00;70.60
9271;DHT22;4673;53.458;9.940;2022-09-16T13:55:05;13.70;72.80
9271;DHT22;4673;53.458;9.940;2022-09-16T14:14:32;11.70;86.80
9271;DHT22;4673;53.458;9.940;2022-09-16T14:17:02;11.60;88.00
9271;DHT22;4673;53.458;9.940;2022-09-16T14:19:34;11.60;88.90
9271;DHT22;4673;53.458;9.940;2022-09-16T14:22:02;11.50;89.80
9271;DHT22;4673;53.458;9.940;2022-09-16T14:24:36;11.40;90.50
9271;DHT22;4673;53.458;9.940;2022-09-16T14:27:03;11.40;91.20
9271;DHT22;4673;53.458;9.940;2022-09-16T14:29:29;11.30;91.60
9271;DHT22;4673;53.458;9.940;2022-09-16T14:31:56;11.30;91.90
9271;DHT22;4673;53.458;9.940;2022-09-16T14:34:32;11.20;92.00
9271;DHT22;4673;53.458;9.940;2022-09-16T14:36:59;11.10;92.40
9271;DHT22;4673;53.458;9.940;2022-09-16T14:39:26;11.00;92.70
9271;DHT22;4673;53.458;9.940;2022-09-16T14:41:59;11.00;93.00
9271;DHT22;4673;53.458;9.940;2022-09-16T14:44:39;11.00;93.40
9271;DHT22;4673;53.458;9.940;2022-09-16T14:47:21;11.00;93.80
9271;DHT22;4673;53.458;9.940;2022-09-16T14:49:54;11.00;94.10
9271;DHT22;4673;53.458;9.940;2022-09-16T14:52:23;11.00;94.50
9271;DHT22;4673;53.458;9.940;2022-09-16T14:54:49;11.00;94.70
9271;DHT22;4673;53.458;9.940;2022-09-16T14:57:19;11.00;95.10
9271;DHT22;4673;53.458;9.940;2022-09-16T14:59:48;11.00;95.60
9271;DHT22;4673;53.458;9.940;2022-09-16T15:02:30;11.00;95.80
9271;DHT22;4673;53.458;9.940;2022-09-16T15:05:20;11.00;96.00
9271;DHT22;4673;53.458;9.940;2022-09-16T15:07:47;11.00;96.30
9271;DHT22;4673;53.458;9.940;2022-09-16T15:10:21;11.00;96.50
9271;DHT22;4673;53.458;9.940;2022-09-16T15:12:50;11.00;96.80
9271;DHT22;4673;53.458;9.940;2022-09-16T15:15:22;11.00;97.10
9271;DHT22;4673;53.458;9.940;2022-09-16T15:18:10;11.00;97.20
9271;DHT22;4673;53.458;9.940;2022-09-16T15:20:39;11.00;97.50
9271;DHT22;4673;53.458;9.940;2022-09-16T15:23:15;11.00;97.90
9271;DHT22;4673;53.458;9.940;2022-09-16T15:25:51;11.00;98.20
9271;DHT22;4673;53.458;9.940;2022-09-16T15:28:18;11.10;98.50
9271;DHT22;4673;53.458;9.940;2022-09-16T15:30:50;11.20;98.60
9271;DHT22;4673;53.458;9.940;2022-09-16T15:33:36;11.20;98.70
9271;DHT22;4673;53.458;9.940;2022-09-16T15:36:05;11.30;99.10
9271;DHT22;4673;53.458;9.940;2022-09-16T15:38:32;11.30;99.30
9271;DHT22;4673;53.458;9.940;2022-09-16T15:43:28;11.30;99.30
9271;DHT22;4673;53.458;9.940;2022-09-16T15:46:00;11.30;99.60
9271;DHT22;4673;53.458;9.940;2022-09-16T15:48:36;11.30;99.80
9271;DHT22;4673;53.458;9.940;2022-09-16T15:51:19;11.30;99.90
9271;DHT22;4673;53.458;9.940;2022-09-16T15:53:47;11.30;99.90
9271;DHT22;4673;53.458;9.940;2022-09-16T15:56:33;11.30;99.90
9271;DHT22;4673;53.458;9.940;2022-09-16T15:59:18;11.30;99.90
9271;DHT22;4673;53.458;9.940;2022-09-16T16:01:49;11.30;99.90
9271;DHT22;4673;53.458;9.940;2022-09-16T16:04:28;11.30;99.90
9271;DHT22;4673;53.458;9.940;2022-09-16T16:12:05;11.40;99.90
9271;DHT22;4673;53.458;9.940;2022-09-16T16:14:33;11.40;99.90
9271;DHT22;4673;53.458;9.940;2022-09-16T16:17:03;11.40;99.90
9271;DHT22;4673;53.458;9.940;2022-09-16T16:19:29;11.40;99.90
9271;DHT22;4673;53.458;9.940;2022-09-16T16:21:56;11.40;99.90
9271;DHT22;4673;53.458;9.940;2022-09-16T16:24:22;11.40;99.90
9271;DHT22;4673;53.458;9.940;2022-09-16T16:26:49;11.40;99.90
9271;DHT22;4673;53.458;9.940;2022-09-16T16:29:15;11.50;99.90
9271;DHT22;4673;53.458;9.940;2022-09-16T16:32:00;11.50;99.90
9271;DHT22;4673;53.458;9.940;2022-09-16T16:34:25;11.50;99.90
9271;DHT22;4673;53.458;9.940;2022-09-16T16:36:51;11.50;99.90
9271;DHT22;4673;53.458;9.940;2022-09-16T16:39:17;11.50;99.90
9271;DHT22;4673;53.458;9.940;2022-09-16T16:41:42;11.60;99.90
9271;DHT22;4673;53.458;9.940;2022-09-16T16:44:08;11.70;99.90
9271;DHT22;4673;53.458;9.940;2022-09-16T16:46:33;11.60;99.90
9271;DHT22;4673;53.458;9.940;2022-09-16T16:48:59;11.60;99.90
9271;DHT22;4673;53.458;9.940;2022-09-16T16:51:25;11.70;99.90
9271;DHT22;4673;53.458;9.940;2022-09-16T16:53:50;11.70;99.90
9271;DHT22;4673;53.458;9.940;2022-09-16T16:56:17;11.70;99.90
9271;DHT22;4673;53.458;9.940;2022-09-16T16:58:43;11.70;99.90
9271;DHT22;4673;53.458;9.940;2022-09-16T17:01:14;11.80;99.90
9271;DHT22;4673;53.458;9.940;2022-09-16T17:03:41;11.70;99.90
9271;DHT22;4673;53.458;9.940;2022-09-16T17:06:09;11.80;99.90
9271;DHT22;4673;53.458;9.940;2022-09-16T17:08:35;11.70;99.90
9271;DHT22;4673;53.458;9.940;2022-09-16T17:11:08;11.80;99.90
9271;DHT22;4673;53.458;9.940;2022-09-16T17:13:35;11.80;99.90
9271;DHT22;4673;53.458;9.940;2022-09-16T17:16:01;11.70;99.90
9271;DHT22;4673;53.458;9.940;2022-09-16T17:18:27;11.70;99.90
9271;DHT22;4673;53.458;9.940;2022-09-16T17:20:52;11.80;99.90
9271;DHT22;4673;53.458;9.940;2022-09-16T17:23:18;11.80;99.90
9271;DHT22;4673;53.458;9.940;2022-09-16T17:25:48;11.80;99.90
9271;DHT22;4673;53.458;9.940;2022-09-16T17:28:15;11.80;99.90
9271;DHT22;4673;53.458;9.940;2022-09-16T17:30:42;11.80;99.90
9271;DHT22;4673;53.458;9.940;2022-09-16T17:33:08;11.70;99.90
9271;DHT22;4673;53.458;9.940;2022-09-16T17:35:34;11.70;99.90
9271;DHT22;4673;53.458;9.940;2022-09-16T17:38:00;11.70;99.90
9271;DHT22;4673;53.458;9.940;2022-09-16T17:40:26;11.70;99.90
9271;DHT22;4673;53.458;9.940;2022-09-16T17:42:52;11.70;99.90
9271;DHT22;4673;53.458;9.940;2022-09-16T17:45:17;11.70;99.90
9271;DHT22;4673;53.458;9.940;2022-09-16T17:47:43;11.70;99.90
9271;DHT22;4673;53.458;9.940;2022-09-16T17:50:09;11.70;99.90
9271;DHT22;4673;53.458;9.940;2022-09-16T17:52:58;11.80;99.90
9271;DHT22;4673;53.458;9.940;2022-09-16T17:55:23;11.70;99.90
9271;DHT22;4673;53.458;9.940;2022-09-16T17:57:49;11.70;99.90
9271;DHT22;4673;53.458;9.940;2022-09-16T18:00:15;11.70;99.90
9271;DHT22;4673;53.458;9.940;2022-09-16T18:02:40;11.70;99.90
9271;DHT22;4673;53.458;9.940;2022-09-16T18:05:07;11.50;99.90
9271;DHT22;4673;53.458;9.940;2022-09-16T18:07:33;11.60;99.90
9271;DHT22;4673;53.458;9.940;2022-09-16T18:09:58;11.60;99.90
9271;DHT22;4673;53.458;9.940;2022-09-16T18:12:24;11.60;99.90
9271;DHT22;4673;53.458;9.940;2022-09-16T18:14:49;11.60;99.90
9271;DHT22;4673;53.458;9.940;2022-09-16T18:17:15;11.60;99.90
9271;DHT22;4673;53.458;9.940;2022-09-16T18:19:43;11.50;99.90
9271;DHT22;4673;53.458;9.940;2022-09-16T18:22:08;11.50;99.90
9271;DHT22;4673;53.458;9.940;2022-09-16T18:24:34;11.50;99.90
9271;DHT22;4673;53.458;9.940;2022-09-16T18:26:59;11.50;99.90
9271;DHT22;4673;53.458;9.940;2022-09-16T18:29:25;11.40;99.90
9271;DHT22;4673;53.458;9.940;2022-09-16T18:31:50;11.40;99.90
9271;DHT22;4673;53.458;9.940;2022-09-16T18:34:18;11.40;99.90
9271;DHT22;4673;53.458;9.940;2022-09-16T18:36:44;11.40;99.90
9271;DHT22;4673;53.458;9.940;2022-09-16T18:39:14;11.30;99.90
9271;DHT22;4673;53.458;9.940;2022-09-16T18:41:42;11.30;99.90
9271;DHT22;4673;53.458;9.940;2022-09-16T18:44:20;11.20;99.90
9271;DHT22;4673;53.458;9.940;2022-09-16T18:46:48;11.20;99.90
9271;DHT22;4673;53.458;9.940;2022-09-16T18:49:15;11.10;99.90
9271;DHT22;4673;53.458;9.940;2022-09-16T18:51:43;11.10;99.90
9271;DHT22;4673;53.458;9.940;2022-09-16T18:54:12;11.10;99.90
9271;DHT22;4673;53.458;9.940;2022-09-16T18:56:39;11.10;99.90
9271;DHT22;4673;53.458;9.940;2022-09-16T18:59:12;11.20;99.90
9271;DHT22;4673;53.458;9.940;2022-09-16T19:01:40;11.20;99.90
9271;DHT22;4673;53.458;9.940;2022-09-16T19:04:08;11.20;99.90
9271;DHT22;4673;53.458;9.940;2022-09-16T19:06:37;11.40;99.90
9271;DHT22;4673;53.458;9.940;2022-09-16T19:09:06;11.20;99.90
9271;DHT22;4673;53.458;9.940;2022-09-16T19:11:33;11.30;99.90
9271;DHT22;4673;53.458;9.940;2022-09-16T19:13:59;11.30;99.90
9271;DHT22;4673;53.458;9.940;2022-09-16T19:16:25;11.30;99.90
9271;DHT22;4673;53.458;9.940;2022-09-16T19:18:52;11.30;99.90
9271;DHT22;4673;53.458;9.940;2022-09-16T19:21:20;11.30;99.90
9271;DHT22;4673;53.458;9.940;2022-09-16T19:23:48;11.30;99.90
9271;DHT22;4673;53.458;9.940;2022-09-16T19:26:16;11.40;99.90
9271;DHT22;4673;53.458;9.940;2022-09-16T19:28:42;11.40;99.90